Latest Weather Observations for Sellicks Hill

IDS60801

Issued at 11:31 pm CST Thursday 28 July 2016 (issued every 30 minutes, with the page automatically refreshed every 10 minutes)

About weather observations | Map of weather stations | Latest weather observations for SA | Other Formats
Station Details ID: 023886 Name: MOUNT TERRIBLE RADAR Lat: -35.33 Lon: 138.50 Height: 385.7 m
Data from the previous 72 hours. | See also: Recent months for locations in South Australia
Date/Time
CST
Temp
°C
App
Temp
°C
Dew
Point
°C
Rel
Hum
%
Delta-T
°C
Wind Press
QNH
hPa
Press
MSL
hPa
Rain since
9am
mm
Dir  Spd
km/h
Gust
km/h
Spd
kts
Gust
kts
28/11:30pm - - - - - NNW 19 28 10 15 - - -
28/11:00pm - - - - - NW 15 33 8 18 - - -
28/10:30pm - - - - - NNW 19 28 10 15 - - -
28/10:00pm - - - - - NNW 17 28 9 15 - - -
28/09:30pm - - - - - NNW 15 20 8 11 - - -
28/09:00pm - - - - - NNW 17 26 9 14 - - -
28/08:30pm - - - - - NNW 13 22 7 12 - - -
28/08:00pm - - - - - NW 17 28 9 15 - - -
28/07:30pm - - - - - NW 13 24 7 13 - - -
28/07:00pm - - - - - NW 13 28 7 15 - - -
28/06:30pm - - - - - NW 13 30 7 16 - - -
28/06:00pm - - - - - NW 13 22 7 12 - - -
28/05:30pm - - - - - NW 13 26 7 14 - - -
28/05:00pm - - - - - NW 11 26 6 14 - - -
28/04:30pm - - - - - NW 13 28 7 15 - - -
28/04:00pm - - - - - NNW 17 30 9 16 - - -
28/03:30pm - - - - - NNW 15 24 8 13 - - -
28/03:00pm - - - - - NNW 13 26 7 14 - - -
28/02:30pm - - - - - NNW 15 24 8 13 - - -
28/02:00pm - - - - - NNW 17 28 9 15 - - -
28/01:30pm - - - - - NNW 19 28 10 15 - - -
28/01:00pm - - - - - NNW 17 28 9 15 - - -
28/12:30pm - - - - - NW 15 26 8 14 - - -
28/12:00pm - - - - - NNW 17 30 9 16 - - -
28/11:30am - - - - - NW 11 24 6 13 - - -
28/11:00am - - - - - NW 11 24 6 13 - - -
28/10:30am - - - - - NNW 13 22 7 12 - - -
28/10:00am - - - - - NNW 11 20 6 11 - - -
28/09:30am - - - - - NW 11 22 6 12 - - -
28/09:00am - - - - - NW 7 15 4 8 - - -
28/08:30am - - - - - NW 9 15 5 8 - - -
28/08:00am - - - - - NW 9 17 5 9 - - -
28/07:30am - - - - - NW 9 19 5 10 - - -
28/07:00am - - - - - NW 7 15 4 8 - - -
28/06:30am - - - - - NW 7 15 4 8 - - -
28/06:00am - - - - - NW 11 20 6 11 - - -
28/05:30am - - - - - NW 7 17 4 9 - - -
28/05:00am - - - - - NW 13 30 7 16 - - -
28/04:30am - - - - - NW 13 22 7 12 - - -
28/04:00am - - - - - NW 13 26 7 14 - - -
28/03:30am - - - - - NW 9 20 5 11 - - -
28/03:00am - - - - - NW 13 26 7 14 - - -
28/02:30am - - - - - NW 7 15 4 8 - - -
28/02:00am - - - - - WNW 13 28 7 15 - - -
28/01:30am - - - - - NW 13 24 7 13 - - -
28/01:00am - - - - - NW 11 19 6 10 - - -
28/12:30am - - - - - WNW 9 24 5 13 - - -
28/12:00am - - - - - NW 7 15 4 8 - - -
 
Date/Time
CST
Temp
°C
App
Temp
°C
Dew
Point
°C
Rel
Hum
%
Delta-T
°C
Wind Press
QNH
hPa
Press
MSL
hPa
Rain since
9am
mm
Dir  Spd
km/h
Gust
km/h
Spd
kts
Gust
kts
27/11:30pm - - - - - NW 11 19 6 10 - - -
27/11:00pm - - - - - NW 11 20 6 11 - - -
27/10:30pm - - - - - NW 7 24 4 13 - - -
27/10:00pm - - - - - NW 7 13 4 7 - - -
27/09:30pm - - - - - NW 11 22 6 12 - - -
27/09:00pm - - - - - NW 13 24 7 13 - - -
27/08:30pm - - - - - WNW 9 20 5 11 - - -
27/08:00pm - - - - - WNW 13 24 7 13 - - -
27/07:30pm - - - - - WNW 9 20 5 11 - - -
27/07:00pm - - - - - WNW 7 17 4 9 - - -
27/06:30pm - - - - - WNW 6 15 3 8 - - -
27/06:00pm - - - - - WNW 4 11 2 6 - - -
27/05:30pm - - - - - NW 6 11 3 6 - - -
27/05:00pm - - - - - NW 6 9 3 5 - - -
27/04:30pm - - - - - WNW 7 15 4 8 - - -
27/04:00pm - - - - - WNW 7 15 4 8 - - -
27/03:30pm - - - - - NW 7 13 4 7 - - -
27/03:00pm - - - - - WNW 7 15 4 8 - - -
27/02:30pm - - - - - WNW 11 20 6 11 - - -
27/02:00pm - - - - - WNW 7 17 4 9 - - -
27/01:30pm - - - - - W 9 24 5 13 - - -
27/01:00pm - - - - - WNW 9 19 5 10 - - -
27/12:30pm - - - - - WNW 9 17 5 9 - - -
27/12:00pm - - - - - W 9 20 5 11 - - -
27/11:30am - - - - - W 9 19 5 10 - - -
27/11:00am - - - - - WSW 7 17 4 9 - - -
27/10:30am - - - - - W 7 13 4 7 - - -
27/10:00am - - - - - WSW 7 17 4 9 - - -
27/09:30am - - - - - SW 7 17 4 9 - - -
27/09:00am - - - - - SW 9 17 5 9 - - -
27/08:30am - - - - - SW 9 19 5 10 - - -
27/08:00am - - - - - SW 9 15 5 8 - - -
27/07:30am - - - - - SW 13 22 7 12 - - -
27/07:00am - - - - - SW 13 24 7 13 - - -
27/06:30am - - - - - SW 9 17 5 9 - - -
27/06:00am - - - - - SW 11 19 6 10 - - -
27/05:30am - - - - - SW 15 30 8 16 - - -
27/05:00am - - - - - SW 13 32 7 17 - - -
27/04:30am - - - - - SW 13 26 7 14 - - -
27/04:00am - - - - - SW 17 32 9 17 - - -
27/03:30am - - - - - WSW 13 28 7 15 - - -
27/03:00am - - - - - WSW 15 28 8 15 - - -
27/02:30am - - - - - WSW 13 26 7 14 - - -
27/02:00am - - - - - W 11 20 6 11 - - -
27/01:30am - - - - - W 17 37 9 20 - - -
27/01:00am - - - - - WNW 9 22 5 12 - - -
27/12:30am - - - - - W 11 24 6 13 - - -
27/12:00am - - - - - W 15 35 8 19 - - -
 
Date/Time
CST
Temp
°C
App
Temp
°C
Dew
Point
°C
Rel
Hum
%
Delta-T
°C
Wind Press
QNH
hPa
Press
MSL
hPa
Rain since
9am
mm
Dir  Spd
km/h
Gust
km/h
Spd
kts
Gust
kts
26/11:30pm - - - - - W 13 26 7 14 - - -
26/11:00pm - - - - - WNW 11 24 6 13 - - -
26/10:30pm - - - - - W 11 22 6 12 - - -
26/10:00pm - - - - - W 13 26 7 14 - - -
26/09:30pm - - - - - W 15 32 8 17 - - -
26/09:00pm - - - - - WNW 15 32 8 17 - - -
26/08:30pm - - - - - W 17 30 9 16 - - -
26/08:00pm - - - - - W 17 35 9 19 - - -
26/07:30pm - - - - - W 17 33 9 18 - - -
26/07:00pm - - - - - WNW 17 33 9 18 - - -
26/06:30pm - - - - - WNW 20 43 11 23 - - -
26/06:00pm - - - - - WNW 17 33 9 18 - - -
26/05:30pm - - - - - WNW 24 46 13 25 - - -
26/05:28pm - - - - - WNW 26 46 14 25 - - -
26/05:00pm - - - - - NNW 39 63 21 34 - - -
26/04:30pm - - - - - NNW 35 59 19 32 - - -
26/04:00pm - - - - - NNW 33 56 18 30 - - -
26/03:30pm - - - - - NNW 35 56 19 30 - - -
26/03:04pm - - - - - NW 33 54 18 29 - - -
26/03:00pm - - - - - NW 32 50 17 27 - - -
26/02:30pm - - - - - NNW 28 54 15 29 - - -
26/02:00pm - - - - - NNW 28 48 15 26 - - -
26/01:30pm - - - - - NW 32 59 17 32 - - -
26/01:03pm - - - - - NNW 28 48 15 26 - - -
26/01:00pm - - - - - NNW 26 48 14 26 - - -
26/12:42pm - - - - - NNW 28 48 15 26 - - -
26/12:30pm - - - - - NNW 26 43 14 23 - - -
26/12:00pm - - - - - NNW 24 41 13 22 - - -
26/11:31am - - - - - NNW 28 50 15 27 - - -
26/11:30am - - - - - NNW 26 50 14 27 - - -
26/11:00am - - - - - NNW 24 41 13 22 - - -
26/10:50am - - - - - NNW 28 48 15 26 - - -
26/10:30am - - - - - NW 26 39 14 21 - - -
26/10:00am - - - - - NW 22 43 12 23 - - -
26/08:00am - - - - - NW 11 20 6 11 - - -
26/07:30am - - - - - NW 15 32 8 17 - - -
26/07:00am - - - - - NW 9 17 5 9 - - -
26/06:30am - - - - - WNW 11 19 6 10 - - -
26/06:00am - - - - - NW 7 20 4 11 - - -
26/05:30am - - - - - NW 13 28 7 15 - - -
26/05:00am - - - - - NW 9 19 5 10 - - -
26/04:30am - - - - - NW 11 20 6 11 - - -
26/04:00am - - - - - WNW 13 28 7 15 - - -
26/03:30am - - - - - W 11 28 6 15 - - -
26/03:00am - - - - - WNW 11 24 6 13 - - -
26/02:30am - - - - - WNW 11 24 6 13 - - -
26/02:00am - - - - - W 11 19 6 10 - - -
26/01:30am - - - - - W 15 35 8 19 - - -
26/01:00am - - - - - WNW 15 33 8 18 - - -
26/12:30am - - - - - WNW 13 26 7 14 - - -
26/12:00am - - - - - W 13 30 7 16 - - -

Other Formats:

Comma delimited format used in spreadsheet applications
http://www.bom.gov.au/fwo/IDS60801/IDS60801.95679.axf

JavaScript Object Notation format (JSON) in row-major order
http://www.bom.gov.au/fwo/IDS60801/IDS60801.95679.json